Harrison, NY

5:32 PM EDT on July 05, 2015 (GMT -0400)
Westchester County | | Change Station
CLOSE
Current Station
Airport
Location: White Plains,
Elevation: 436 ft
Nearby Weather Stations

Elev 436 ft 41.06 °N, 73.70 °W | Updated 36 minutes ago

Partly Cloudy
Partly Cloudy
82 °F
Feels Like 82 °F
N
4
Wind Variable Wind from Variable

Today
High -- | Low -- °F
--% Chance of Precip.
Yesterday
High -- | Low -- °F
Precip. -- in
5:28 AM 8:30 PM
Waning Gibbous, 82% visible
Pressure 30.09 in
Visibility 10.0 miles
Clouds Few 3500 ft
Heat Index 82 °F
Dew Point 60 °F
Humidity 47%
Rainfall 0.00 in
Snow Depth Not available.
UV 4 out of 12
Pollen 4.20 out of 12
Air Quality Not available.
Flu Activity Not available.
METAR KHPN 052056Z VRB03KT 10SM FEW035 28/16 A3010 RMK AO2 SLP188 T02780156 56006 $

More Conditions Fewer Conditions

Pressure 30.09 in
Visibility 10.0 miles
Clouds Few 3500 ft
Heat Index 82 °F
Dew Point 60 °F
Humidity 47%
Rainfall 0.00 in
Snow Depth Not available.
UV 4 out of 12
Pollen 4.20 out of 12
Air Quality Not available.
Flu Activity Not available.
METAR KHPN 052056Z VRB03KT 10SM FEW035 28/16 A3010 RMK AO2 SLP188 T02780156 56006 $

More Conditions Fewer Conditions

10-Day Weather Forecast

×

Almanac

Astronomy

Jul. 05, 2015 Rise Set
Actual Time
Civil Twilight
Nautical Twilight
Astronomical Twilight
Moon
Length of Visible Light
Length of Day
Tomorrow will be .
, % of the Moon is Illuminated

Today's Extremes

State Highs State Lows

Community

WunderPhotos

Upload Photos

1,835,399 photos uploaded!

WunderBlogs® & News

Nearby

Air Quality

  Air Quality AQ Index Pollutant
Not available.

Snow Depth

Station Depth Elevation

Earthquake Activity

City Distance Mag. Time & Date
Minimum magnitude displayed is 2.5.

Coastal Water Temperatures

Place Temperature

Stations

Nearby Weather Stations

Station Location Temp. Windchill Dew Point Humidity Wind Precip. Elev Updated Type